sensor_id;sensor_type;location;lat;lon;timestamp;temperature;humidity
58809;DHT22;44579;51.672;7.834;2023-04-25T00:00:25;7.90;74.60
58809;DHT22;44579;51.672;7.834;2023-04-25T00:02:53;7.90;74.70
58809;DHT22;44579;51.672;7.834;2023-04-25T00:05:23;7.90;74.80
58809;DHT22;44579;51.672;7.834;2023-04-25T00:07:50;7.90;74.80
58809;DHT22;44579;51.672;7.834;2023-04-25T00:10:18;7.90;74.80
58809;DHT22;44579;51.672;7.834;2023-04-25T00:12:45;7.90;74.70
58809;DHT22;44579;51.672;7.834;2023-04-25T00:15:12;7.90;74.70
58809;DHT22;44579;51.672;7.834;2023-04-25T00:17:39;8.00;74.70
58809;DHT22;44579;51.672;7.834;2023-04-25T00:20:06;8.00;74.80
58809;DHT22;44579;51.672;7.834;2023-04-25T00:22:35;8.00;74.70
58809;DHT22;44579;51.672;7.834;2023-04-25T00:25:04;8.00;74.80
58809;DHT22;44579;51.672;7.834;2023-04-25T00:27:31;8.00;74.80
58809;DHT22;44579;51.672;7.834;2023-04-25T00:29:59;8.00;74.90
58809;DHT22;44579;51.672;7.834;2023-04-25T00:32:26;8.00;75.00
58809;DHT22;44579;51.672;7.834;2023-04-25T00:34:53;8.00;75.10
58809;DHT22;44579;51.672;7.834;2023-04-25T00:37:22;8.00;75.10
58809;DHT22;44579;51.672;7.834;2023-04-25T00:39:49;8.00;75.10
58809;DHT22;44579;51.672;7.834;2023-04-25T00:42:16;8.10;75.20
58809;DHT22;44579;51.672;7.834;2023-04-25T00:44:43;8.10;75.20
58809;DHT22;44579;51.672;7.834;2023-04-25T00:47:10;8.00;75.20
58809;DHT22;44579;51.672;7.834;2023-04-25T00:49:37;8.00;75.50
58809;DHT22;44579;51.672;7.834;2023-04-25T00:52:04;8.00;75.50
58809;DHT22;44579;51.672;7.834;2023-04-25T00:54:31;8.00;75.60
58809;DHT22;44579;51.672;7.834;2023-04-25T00:56:58;8.10;75.80
58809;DHT22;44579;51.672;7.834;2023-04-25T00:59:25;8.00;75.80
58809;DHT22;44579;51.672;7.834;2023-04-25T01:01:52;8.00;76.00
58809;DHT22;44579;51.672;7.834;2023-04-25T01:04:19;8.00;76.10
58809;DHT22;44579;51.672;7.834;2023-04-25T01:06:47;7.90;76.00
58809;DHT22;44579;51.672;7.834;2023-04-25T01:09:14;7.90;76.20
58809;DHT22;44579;51.672;7.834;2023-04-25T01:11:41;7.90;76.20
58809;DHT22;44579;51.672;7.834;2023-04-25T01:14:08;8.00;76.20
58809;DHT22;44579;51.672;7.834;2023-04-25T01:16:35;8.00;76.20
58809;DHT22;44579;51.672;7.834;2023-04-25T01:19:09;8.00;76.20
58809;DHT22;44579;51.672;7.834;2023-04-25T01:21:38;8.00;76.10
58809;DHT22;44579;51.672;7.834;2023-04-25T01:24:05;8.00;76.10
58809;DHT22;44579;51.672;7.834;2023-04-25T01:26:33;8.00;76.20
58809;DHT22;44579;51.672;7.834;2023-04-25T01:29:01;8.00;76.20
58809;DHT22;44579;51.672;7.834;2023-04-25T01:31:28;8.00;76.20
58809;DHT22;44579;51.672;7.834;2023-04-25T01:33:55;8.00;76.20
58809;DHT22;44579;51.672;7.834;2023-04-25T01:36:22;8.00;76.20
58809;DHT22;44579;51.672;7.834;2023-04-25T01:38:49;7.90;76.30
58809;DHT22;44579;51.672;7.834;2023-04-25T01:41:16;8.00;76.40
58809;DHT22;44579;51.672;7.834;2023-04-25T01:43:44;7.90;76.40
58809;DHT22;44579;51.672;7.834;2023-04-25T01:46:12;8.00;76.40
58809;DHT22;44579;51.672;7.834;2023-04-25T01:48:39;8.00;76.30
58809;DHT22;44579;51.672;7.834;2023-04-25T01:51:06;8.00;76.30
58809;DHT22;44579;51.672;7.834;2023-04-25T01:53:33;7.90;76.20
58809;DHT22;44579;51.672;7.834;2023-04-25T01:56:02;8.00;76.30
58809;DHT22;44579;51.672;7.834;2023-04-25T01:58:32;7.90;76.30
58809;DHT22;44579;51.672;7.834;2023-04-25T02:01:07;7.90;76.40
58809;DHT22;44579;51.672;7.834;2023-04-25T02:03:41;7.90;76.40
58809;DHT22;44579;51.672;7.834;2023-04-25T02:06:30;7.80;76.60
58809;DHT22;44579;51.672;7.834;2023-04-25T02:08:57;7.80;76.60
58809;DHT22;44579;51.672;7.834;2023-04-25T02:11:24;7.80;76.60
58809;DHT22;44579;51.672;7.834;2023-04-25T02:14:14;7.80;76.60
58809;DHT22;44579;51.672;7.834;2023-04-25T02:16:47;7.80;76.60
58809;DHT22;44579;51.672;7.834;2023-04-25T02:19:14;7.80;76.60
58809;DHT22;44579;51.672;7.834;2023-04-25T02:21:41;7.80;76.50
58809;DHT22;44579;51.672;7.834;2023-04-25T02:24:10;7.90;76.50
58809;DHT22;44579;51.672;7.834;2023-04-25T02:26:37;7.90;76.50
58809;DHT22;44579;51.672;7.834;2023-04-25T02:29:06;7.90;76.40
58809;DHT22;44579;51.672;7.834;2023-04-25T02:31:34;7.80;76.50
58809;DHT22;44579;51.672;7.834;2023-04-25T02:34:01;7.90;76.60
58809;DHT22;44579;51.672;7.834;2023-04-25T02:36:28;7.80;76.50
58809;DHT22;44579;51.672;7.834;2023-04-25T02:38:57;7.90;76.40
58809;DHT22;44579;51.672;7.834;2023-04-25T02:41:24;7.90;76.50
58809;DHT22;44579;51.672;7.834;2023-04-25T02:43:51;7.90;76.30
58809;DHT22;44579;51.672;7.834;2023-04-25T02:46:18;8.00;76.30
58809;DHT22;44579;51.672;7.834;2023-04-25T02:49:03;7.90;76.20
58809;DHT22;44579;51.672;7.834;2023-04-25T02:51:30;7.90;76.20
58809;DHT22;44579;51.672;7.834;2023-04-25T02:53:58;8.00;76.40
58809;DHT22;44579;51.672;7.834;2023-04-25T02:56:26;7.90;76.30
58809;DHT22;44579;51.672;7.834;2023-04-25T02:58:53;7.90;76.50
58809;DHT22;44579;51.672;7.834;2023-04-25T03:01:21;7.90;76.50
58809;DHT22;44579;51.672;7.834;2023-04-25T03:03:48;7.90;76.60
58809;DHT22;44579;51.672;7.834;2023-04-25T03:06:15;7.80;76.70
58809;DHT22;44579;51.672;7.834;2023-04-25T03:08:42;7.90;76.90
58809;DHT22;44579;51.672;7.834;2023-04-25T03:11:09;7.80;76.90
58809;DHT22;44579;51.672;7.834;2023-04-25T03:13:37;7.80;77.00
58809;DHT22;44579;51.672;7.834;2023-04-25T03:16:04;7.80;77.00
58809;DHT22;44579;51.672;7.834;2023-04-25T03:18:32;7.80;77.10
58809;DHT22;44579;51.672;7.834;2023-04-25T03:20:59;7.80;77.10
58809;DHT22;44579;51.672;7.834;2023-04-25T03:23:26;7.80;77.20
58809;DHT22;44579;51.672;7.834;2023-04-25T03:25:53;7.80;77.30
58809;DHT22;44579;51.672;7.834;2023-04-25T03:28:20;7.80;77.30
58809;DHT22;44579;51.672;7.834;2023-04-25T03:30:47;7.70;77.30
58809;DHT22;44579;51.672;7.834;2023-04-25T03:33:14;7.80;78.20
58809;DHT22;44579;51.672;7.834;2023-04-25T03:35:41;7.80;77.30
58809;DHT22;44579;51.672;7.834;2023-04-25T03:38:09;7.80;77.30
58809;DHT22;44579;51.672;7.834;2023-04-25T03:40:39;7.80;77.50
58809;DHT22;44579;51.672;7.834;2023-04-25T03:43:22;7.70;77.50
58809;DHT22;44579;51.672;7.834;2023-04-25T03:45:55;7.70;77.70
58809;DHT22;44579;51.672;7.834;2023-04-25T03:48:26;7.70;77.60
58809;DHT22;44579;51.672;7.834;2023-04-25T03:50:53;7.70;77.40
58809;DHT22;44579;51.672;7.834;2023-04-25T03:53:20;7.70;77.70
58809;DHT22;44579;51.672;7.834;2023-04-25T03:56:07;7.70;77.60
58809;DHT22;44579;51.672;7.834;2023-04-25T03:58:37;7.70;78.00
58809;DHT22;44579;51.672;7.834;2023-04-25T04:01:05;7.70;78.10
58809;DHT22;44579;51.672;7.834;2023-04-25T04:03:36;7.70;78.20
58809;DHT22;44579;51.672;7.834;2023-04-25T04:06:05;7.70;78.20
58809;DHT22;44579;51.672;7.834;2023-04-25T04:08:35;7.80;78.10
58809;DHT22;44579;51.672;7.834;2023-04-25T04:11:02;7.80;78.30
58809;DHT22;44579;51.672;7.834;2023-04-25T04:13:32;7.70;78.20
58809;DHT22;44579;51.672;7.834;2023-04-25T04:16:02;7.70;78.50
58809;DHT22;44579;51.672;7.834;2023-04-25T04:18:31;7.70;78.70
58809;DHT22;44579;51.672;7.834;2023-04-25T04:21:00;7.80;78.40
58809;DHT22;44579;51.672;7.834;2023-04-25T04:23:34;7.70;78.30
58809;DHT22;44579;51.672;7.834;2023-04-25T04:26:05;7.80;78.20
58809;DHT22;44579;51.672;7.834;2023-04-25T04:28:50;7.80;78.00
58809;DHT22;44579;51.672;7.834;2023-04-25T04:31:37;7.80;77.90
58809;DHT22;44579;51.672;7.834;2023-04-25T04:34:05;7.80;78.10
58809;DHT22;44579;51.672;7.834;2023-04-25T04:36:34;7.80;78.20
58809;DHT22;44579;51.672;7.834;2023-04-25T04:39:01;7.80;78.20
58809;DHT22;44579;51.672;7.834;2023-04-25T04:41:45;7.80;78.30
58809;DHT22;44579;51.672;7.834;2023-04-25T04:44:29;7.80;78.30
58809;DHT22;44579;51.672;7.834;2023-04-25T04:47:31;7.80;78.30
58809;DHT22;44579;51.672;7.834;2023-04-25T04:50:16;7.70;78.30
58809;DHT22;44579;51.672;7.834;2023-04-25T04:53:12;7.80;78.40
58809;DHT22;44579;51.672;7.834;2023-04-25T04:55:39;7.80;78.30
58809;DHT22;44579;51.672;7.834;2023-04-25T04:58:21;7.80;78.40
58809;DHT22;44579;51.672;7.834;2023-04-25T05:01:01;7.90;78.30
58809;DHT22;44579;51.672;7.834;2023-04-25T05:03:53;7.90;78.10
58809;DHT22;44579;51.672;7.834;2023-04-25T05:06:34;7.90;78.00
58809;DHT22;44579;51.672;7.834;2023-04-25T05:09:26;7.90;77.90
58809;DHT22;44579;51.672;7.834;2023-04-25T05:12:12;7.90;77.90
58809;DHT22;44579;51.672;7.834;2023-04-25T05:14:57;7.90;78.00
58809;DHT22;44579;51.672;7.834;2023-04-25T05:17:50;7.90;78.20
58809;DHT22;44579;51.672;7.834;2023-04-25T05:20:31;7.90;78.30
58809;DHT22;44579;51.672;7.834;2023-04-25T05:23:20;7.90;78.30
58809;DHT22;44579;51.672;7.834;2023-04-25T05:26:16;8.00;78.30
58809;DHT22;44579;51.672;7.834;2023-04-25T05:29:06;8.00;78.20
58809;DHT22;44579;51.672;7.834;2023-04-25T05:31:52;8.00;78.10
58809;DHT22;44579;51.672;7.834;2023-04-25T05:34:19;8.00;78.30
58809;DHT22;44579;51.672;7.834;2023-04-25T05:36:54;8.10;78.30
58809;DHT22;44579;51.672;7.834;2023-04-25T05:39:22;8.00;78.30
58809;DHT22;44579;51.672;7.834;2023-04-25T05:42:21;8.20;78.50
58809;DHT22;44579;51.672;7.834;2023-04-25T05:44:51;8.20;78.60
58809;DHT22;44579;51.672;7.834;2023-04-25T05:47:36;8.20;79.10
58809;DHT22;44579;51.672;7.834;2023-04-25T05:50:07;8.20;79.60
58809;DHT22;44579;51.672;7.834;2023-04-25T05:53:13;8.30;79.80
58809;DHT22;44579;51.672;7.834;2023-04-25T05:55:42;8.40;79.90
58809;DHT22;44579;51.672;7.834;2023-04-25T05:58:21;8.40;80.00
58809;DHT22;44579;51.672;7.834;2023-04-25T06:00:48;8.40;79.90
58809;DHT22;44579;51.672;7.834;2023-04-25T06:03:16;8.40;80.10
58809;DHT22;44579;51.672;7.834;2023-04-25T06:05:47;8.40;80.40
58809;DHT22;44579;51.672;7.834;2023-04-25T06:08:14;8.30;80.80
58809;DHT22;44579;51.672;7.834;2023-04-25T06:10:44;8.30;81.00
58809;DHT22;44579;51.672;7.834;2023-04-25T06:13:10;8.20;81.20
58809;DHT22;44579;51.672;7.834;2023-04-25T06:15:37;8.30;81.30
58809;DHT22;44579;51.672;7.834;2023-04-25T06:18:10;8.40;81.20
58809;DHT22;44579;51.672;7.834;2023-04-25T06:20:36;8.60;81.00
58809;DHT22;44579;51.672;7.834;2023-04-25T06:23:05;8.70;80.70
58809;DHT22;44579;51.672;7.834;2023-04-25T06:25:41;8.80;80.70
58809;DHT22;44579;51.672;7.834;2023-04-25T06:28:08;8.80;80.60
58809;DHT22;44579;51.672;7.834;2023-04-25T06:30:35;8.80;80.80
58809;DHT22;44579;51.672;7.834;2023-04-25T06:33:06;8.70;80.80
58809;DHT22;44579;51.672;7.834;2023-04-25T06:35:36;8.70;81.00
58809;DHT22;44579;51.672;7.834;2023-04-25T06:38:06;8.70;81.00
58809;DHT22;44579;51.672;7.834;2023-04-25T06:40:38;8.70;81.10
58809;DHT22;44579;51.672;7.834;2023-04-25T06:43:07;8.70;80.80
58809;DHT22;44579;51.672;7.834;2023-04-25T06:45:54;8.80;80.80
58809;DHT22;44579;51.672;7.834;2023-04-25T06:48:23;8.80;80.60
58809;DHT22;44579;51.672;7.834;2023-04-25T06:50:51;8.80;80.40
58809;DHT22;44579;51.672;7.834;2023-04-25T06:53:18;8.90;80.40
58809;DHT22;44579;51.672;7.834;2023-04-25T06:55:51;8.80;80.00
58809;DHT22;44579;51.672;7.834;2023-04-25T06:58:21;8.80;79.90
58809;DHT22;44579;51.672;7.834;2023-04-25T07:00:53;8.80;80.00
58809;DHT22;44579;51.672;7.834;2023-04-25T07:03:23;9.00;80.10
58809;DHT22;44579;51.672;7.834;2023-04-25T07:05:56;9.00;79.80
58809;DHT22;44579;51.672;7.834;2023-04-25T07:08:24;9.00;79.70
58809;DHT22;44579;51.672;7.834;2023-04-25T07:10:51;9.10;79.60
58809;DHT22;44579;51.672;7.834;2023-04-25T07:13:17;9.10;79.80
58809;DHT22;44579;51.672;7.834;2023-04-25T07:15:44;9.20;79.70
58809;DHT22;44579;51.672;7.834;2023-04-25T07:18:12;9.20;79.50
58809;DHT22;44579;51.672;7.834;2023-04-25T07:20:39;9.30;79.30
58809;DHT22;44579;51.672;7.834;2023-04-25T07:23:06;9.30;78.90
58809;DHT22;44579;51.672;7.834;2023-04-25T07:25:33;9.20;79.60
58809;DHT22;44579;51.672;7.834;2023-04-25T07:28:01;9.20;79.00
58809;DHT22;44579;51.672;7.834;2023-04-25T07:30:27;9.20;78.80
58809;DHT22;44579;51.672;7.834;2023-04-25T07:32:54;9.10;78.70
58809;DHT22;44579;51.672;7.834;2023-04-25T07:35:23;9.20;78.90
58809;DHT22;44579;51.672;7.834;2023-04-25T07:37:51;9.30;78.70
58809;DHT22;44579;51.672;7.834;2023-04-25T07:40:19;9.40;78.60
58809;DHT22;44579;51.672;7.834;2023-04-25T07:42:53;9.50;78.20
58809;DHT22;44579;51.672;7.834;2023-04-25T07:45:31;9.60;77.60
58809;DHT22;44579;51.672;7.834;2023-04-25T07:47:58;9.60;77.70
58809;DHT22;44579;51.672;7.834;2023-04-25T07:50:25;9.60;77.60
58809;DHT22;44579;51.672;7.834;2023-04-25T07:52:52;9.70;77.60
58809;DHT22;44579;51.672;7.834;2023-04-25T07:55:29;9.80;77.20
58809;DHT22;44579;51.672;7.834;2023-04-25T07:58:09;9.70;76.40
58809;DHT22;44579;51.672;7.834;2023-04-25T08:00:41;9.60;75.20
58809;DHT22;44579;51.672;7.834;2023-04-25T08:03:29;9.50;74.10
58809;DHT22;44579;51.672;7.834;2023-04-25T08:05:58;9.50;74.20
58809;DHT22;44579;51.672;7.834;2023-04-25T08:08:28;9.70;74.10
58809;DHT22;44579;51.672;7.834;2023-04-25T08:10:55;9.80;72.90
58809;DHT22;44579;51.672;7.834;2023-04-25T08:13:22;9.80;71.70
58809;DHT22;44579;51.672;7.834;2023-04-25T08:15:49;9.80;71.10
58809;DHT22;44579;51.672;7.834;2023-04-25T08:18:16;9.80;69.60
58809;DHT22;44579;51.672;7.834;2023-04-25T08:20:45;9.80;69.70
58809;DHT22;44579;51.672;7.834;2023-04-25T08:23:14;10.00;70.30
58809;DHT22;44579;51.672;7.834;2023-04-25T08:25:51;10.10;70.20
58809;DHT22;44579;51.672;7.834;2023-04-25T08:28:23;10.20;70.10
58809;DHT22;44579;51.672;7.834;2023-04-25T08:30:50;10.20;69.80
58809;DHT22;44579;51.672;7.834;2023-04-25T08:33:19;10.20;70.10
58809;DHT22;44579;51.672;7.834;2023-04-25T08:35:49;10.20;69.10
58809;DHT22;44579;51.672;7.834;2023-04-25T08:38:16;10.20;68.30
58809;DHT22;44579;51.672;7.834;2023-04-25T08:40:44;10.10;66.50
58809;DHT22;44579;51.672;7.834;2023-04-25T08:43:18;9.90;66.90
58809;DHT22;44579;51.672;7.834;2023-04-25T08:45:46;9.80;66.20
58809;DHT22;44579;51.672;7.834;2023-04-25T08:48:32;9.90;67.10
58809;DHT22;44579;51.672;7.834;2023-04-25T08:50:59;10.10;67.30
58809;DHT22;44579;51.672;7.834;2023-04-25T08:53:29;10.20;67.50
58809;DHT22;44579;51.672;7.834;2023-04-25T08:55:59;10.30;67.30
58809;DHT22;44579;51.672;7.834;2023-04-25T08:58:31;10.40;67.50
58809;DHT22;44579;51.672;7.834;2023-04-25T09:00:58;10.60;67.20
58809;DHT22;44579;51.672;7.834;2023-04-25T09:03:29;10.70;66.30
58809;DHT22;44579;51.672;7.834;2023-04-25T09:05:56;10.70;66.30
58809;DHT22;44579;51.672;7.834;2023-04-25T09:08:24;10.80;66.00
58809;DHT22;44579;51.672;7.834;2023-04-25T09:10:52;10.60;64.90
58809;DHT22;44579;51.672;7.834;2023-04-25T09:13:26;10.50;65.10
58809;DHT22;44579;51.672;7.834;2023-04-25T09:16:12;10.40;63.60
58809;DHT22;44579;51.672;7.834;2023-04-25T09:19:01;10.10;63.20
58809;DHT22;44579;51.672;7.834;2023-04-25T09:21:28;10.10;64.30
58809;DHT22;44579;51.672;7.834;2023-04-25T09:23:58;10.10;64.40
58809;DHT22;44579;51.672;7.834;2023-04-25T09:26:26;10.10;64.60
58809;DHT22;44579;51.672;7.834;2023-04-25T09:29:04;10.10;64.70
58809;DHT22;44579;51.672;7.834;2023-04-25T09:31:31;10.10;63.50
58809;DHT22;44579;51.672;7.834;2023-04-25T09:34:01;10.10;63.60
58809;DHT22;44579;51.672;7.834;2023-04-25T09:36:38;10.30;63.90
58809;DHT22;44579;51.672;7.834;2023-04-25T09:39:46;10.40;62.80
58809;DHT22;44579;51.672;7.834;2023-04-25T09:42:16;10.40;62.20
58809;DHT22;44579;51.672;7.834;2023-04-25T09:44:44;10.40;61.80
58809;DHT22;44579;51.672;7.834;2023-04-25T09:47:13;10.40;62.00
58809;DHT22;44579;51.672;7.834;2023-04-25T09:49:42;10.40;62.30
58809;DHT22;44579;51.672;7.834;2023-04-25T09:52:15;10.50;62.90
58809;DHT22;44579;51.672;7.834;2023-04-25T09:54:55;10.60;63.10
58809;DHT22;44579;51.672;7.834;2023-04-25T09:57:30;10.60;63.50
58809;DHT22;44579;51.672;7.834;2023-04-25T09:59:57;10.60;63.70
58809;DHT22;44579;51.672;7.834;2023-04-25T10:02:39;10.60;64.10
58809;DHT22;44579;51.672;7.834;2023-04-25T10:05:14;10.70;64.00
58809;DHT22;44579;51.672;7.834;2023-04-25T10:07:42;10.80;64.30
58809;DHT22;44579;51.672;7.834;2023-04-25T10:10:14;10.90;64.40
58809;DHT22;44579;51.672;7.834;2023-04-25T10:12:41;11.00;64.00
58809;DHT22;44579;51.672;7.834;2023-04-25T10:15:09;11.10;64.10
58809;DHT22;44579;51.672;7.834;2023-04-25T10:17:37;11.30;63.30
58809;DHT22;44579;51.672;7.834;2023-04-25T10:20:05;11.50;63.50
58809;DHT22;44579;51.672;7.834;2023-04-25T10:22:41;11.50;63.20
58809;DHT22;44579;51.672;7.834;2023-04-25T10:25:09;11.60;63.00
58809;DHT22;44579;51.672;7.834;2023-04-25T10:27:36;11.50;63.20
58809;DHT22;44579;51.672;7.834;2023-04-25T10:30:13;11.40;63.70
58809;DHT22;44579;51.672;7.834;2023-04-25T10:32:42;11.40;63.80
58809;DHT22;44579;51.672;7.834;2023-04-25T10:37:56;11.30;63.30
58809;DHT22;44579;51.672;7.834;2023-04-25T10:40:23;11.30;62.10
58809;DHT22;44579;51.672;7.834;2023-04-25T10:42:53;11.20;60.90
58809;DHT22;44579;51.672;7.834;2023-04-25T10:45:23;11.00;60.10
58809;DHT22;44579;51.672;7.834;2023-04-25T10:47:49;10.90;58.80
58809;DHT22;44579;51.672;7.834;2023-04-25T10:50:16;10.90;59.20
58809;DHT22;44579;51.672;7.834;2023-04-25T10:52:43;10.90;59.60
58809;DHT22;44579;51.672;7.834;2023-04-25T10:55:13;10.90;59.40
58809;DHT22;44579;51.672;7.834;2023-04-25T10:57:44;11.00;59.30
58809;DHT22;44579;51.672;7.834;2023-04-25T11:00:13;10.90;58.90
58809;DHT22;44579;51.672;7.834;2023-04-25T11:02:48;11.00;59.40
58809;DHT22;44579;51.672;7.834;2023-04-25T11:07:49;11.10;59.10
58809;DHT22;44579;51.672;7.834;2023-04-25T11:10:32;11.30;59.50
58809;DHT22;44579;51.672;7.834;2023-04-25T11:13:02;11.50;59.80
58809;DHT22;44579;51.672;7.834;2023-04-25T11:15:29;11.50;60.40
58809;DHT22;44579;51.672;7.834;2023-04-25T11:17:56;11.60;60.70
58809;DHT22;44579;51.672;7.834;2023-04-25T11:20:24;11.60;59.60
58809;DHT22;44579;51.672;7.834;2023-04-25T11:22:52;11.60;59.90
58809;DHT22;44579;51.672;7.834;2023-04-25T11:25:19;11.60;60.40
58809;DHT22;44579;51.672;7.834;2023-04-25T11:27:53;11.60;60.50
58809;DHT22;44579;51.672;7.834;2023-04-25T11:30:20;11.60;61.00
58809;DHT22;44579;51.672;7.834;2023-04-25T11:32:48;11.60;61.50
58809;DHT22;44579;51.672;7.834;2023-04-25T11:35:15;11.60;61.50
58809;DHT22;44579;51.672;7.834;2023-04-25T11:37:42;11.50;61.90
58809;DHT22;44579;51.672;7.834;2023-04-25T11:40:09;11.50;62.30
58809;DHT22;44579;51.672;7.834;2023-04-25T11:42:37;11.40;62.50
58809;DHT22;44579;51.672;7.834;2023-04-25T11:45:04;11.40;62.50
58809;DHT22;44579;51.672;7.834;2023-04-25T11:47:32;11.40;62.50
58809;DHT22;44579;51.672;7.834;2023-04-25T11:49:59;11.40;62.80
58809;DHT22;44579;51.672;7.834;2023-04-25T11:52:39;11.30;63.00
58809;DHT22;44579;51.672;7.834;2023-04-25T11:55:12;11.30;63.10
58809;DHT22;44579;51.672;7.834;2023-04-25T11:57:39;11.30;63.00
58809;DHT22;44579;51.672;7.834;2023-04-25T12:00:16;11.40;63.00
58809;DHT22;44579;51.672;7.834;2023-04-25T12:02:51;11.50;62.90
58809;DHT22;44579;51.672;7.834;2023-04-25T12:05:18;11.60;62.60
58809;DHT22;44579;51.672;7.834;2023-04-25T12:08:09;11.80;62.40
58809;DHT22;44579;51.672;7.834;2023-04-25T12:10:37;12.00;62.70
58809;DHT22;44579;51.672;7.834;2023-04-25T12:13:17;12.20;62.50
58809;DHT22;44579;51.672;7.834;2023-04-25T12:15:44;12.20;62.60
58809;DHT22;44579;51.672;7.834;2023-04-25T12:18:11;12.40;62.90
58809;DHT22;44579;51.672;7.834;2023-04-25T12:20:38;12.50;63.10
58809;DHT22;44579;51.672;7.834;2023-04-25T12:23:08;12.60;63.30
58809;DHT22;44579;51.672;7.834;2023-04-25T12:28:18;12.60;63.50
58809;DHT22;44579;51.672;7.834;2023-04-25T12:33:19;12.20;62.90
58809;DHT22;44579;51.672;7.834;2023-04-25T12:35:46;12.00;63.00
58809;DHT22;44579;51.672;7.834;2023-04-25T12:38:29;11.90;63.30
58809;DHT22;44579;51.672;7.834;2023-04-25T12:40:57;11.80;62.70
58809;DHT22;44579;51.672;7.834;2023-04-25T12:43:24;11.20;59.40
58809;DHT22;44579;51.672;7.834;2023-04-25T12:45:51;10.50;60.70
58809;DHT22;44579;51.672;7.834;2023-04-25T12:48:18;10.10;62.90
58809;DHT22;44579;51.672;7.834;2023-04-25T12:50:46;9.90;64.30
58809;DHT22;44579;51.672;7.834;2023-04-25T12:53:20;9.70;65.10
58809;DHT22;44579;51.672;7.834;2023-04-25T12:55:48;9.50;66.00
58809;DHT22;44579;51.672;7.834;2023-04-25T12:58:16;9.40;66.40
58809;DHT22;44579;51.672;7.834;2023-04-25T13:00:44;9.40;66.80
58809;DHT22;44579;51.672;7.834;2023-04-25T13:03:11;9.30;66.80
58809;DHT22;44579;51.672;7.834;2023-04-25T13:05:39;9.40;66.80
58809;DHT22;44579;51.672;7.834;2023-04-25T13:08:06;9.40;66.30
58809;DHT22;44579;51.672;7.834;2023-04-25T13:10:33;9.40;65.90
58809;DHT22;44579;51.672;7.834;2023-04-25T13:13:02;9.50;65.80
58809;DHT22;44579;51.672;7.834;2023-04-25T13:15:29;9.80;65.60
58809;DHT22;44579;51.672;7.834;2023-04-25T13:17:56;9.90;65.30
58809;DHT22;44579;51.672;7.834;2023-04-25T13:20:26;9.90;65.00
58809;DHT22;44579;51.672;7.834;2023-04-25T13:22:53;10.00;65.10
58809;DHT22;44579;51.672;7.834;2023-04-25T13:25:20;10.10;65.00
58809;DHT22;44579;51.672;7.834;2023-04-25T13:27:48;10.30;64.80
58809;DHT22;44579;51.672;7.834;2023-04-25T13:30:15;10.50;64.30
58809;DHT22;44579;51.672;7.834;2023-04-25T13:32:42;10.60;63.40
58809;DHT22;44579;51.672;7.834;2023-04-25T13:35:09;10.60;62.60
58809;DHT22;44579;51.672;7.834;2023-04-25T13:37:37;10.70;62.30
58809;DHT22;44579;51.672;7.834;2023-04-25T13:40:05;10.80;61.90
58809;DHT22;44579;51.672;7.834;2023-04-25T13:42:32;10.80;61.80
58809;DHT22;44579;51.672;7.834;2023-04-25T13:45:03;10.90;61.30
58809;DHT22;44579;51.672;7.834;2023-04-25T13:47:58;10.80;60.90
58809;DHT22;44579;51.672;7.834;2023-04-25T13:50:25;10.80;61.10
58809;DHT22;44579;51.672;7.834;2023-04-25T13:52:52;10.90;60.80
58809;DHT22;44579;51.672;7.834;2023-04-25T13:55:20;11.00;60.50
58809;DHT22;44579;51.672;7.834;2023-04-25T13:57:47;10.90;59.00
58809;DHT22;44579;51.672;7.834;2023-04-25T14:00:14;10.80;59.00
58809;DHT22;44579;51.672;7.834;2023-04-25T14:02:41;10.90;59.40
58809;DHT22;44579;51.672;7.834;2023-04-25T14:05:10;11.00;59.20
58809;DHT22;44579;51.672;7.834;2023-04-25T14:07:37;11.00;58.80
58809;DHT22;44579;51.672;7.834;2023-04-25T14:10:06;11.00;58.70
58809;DHT22;44579;51.672;7.834;2023-04-25T14:12:33;11.10;59.20
58809;DHT22;44579;51.672;7.834;2023-04-25T14:15:00;11.20;59.30
58809;DHT22;44579;51.672;7.834;2023-04-25T14:17:27;11.30;59.40
58809;DHT22;44579;51.672;7.834;2023-04-25T14:19:54;11.50;59.50
58809;DHT22;44579;51.672;7.834;2023-04-25T14:22:21;11.50;59.40
58809;DHT22;44579;51.672;7.834;2023-04-25T14:24:48;11.60;59.60
58809;DHT22;44579;51.672;7.834;2023-04-25T14:27:15;11.60;60.00
58809;DHT22;44579;51.672;7.834;2023-04-25T14:29:42;11.60;60.30
58809;DHT22;44579;51.672;7.834;2023-04-25T14:32:09;11.70;60.60
58809;DHT22;44579;51.672;7.834;2023-04-25T14:34:36;11.80;60.80
58809;DHT22;44579;51.672;7.834;2023-04-25T14:37:03;11.90;60.70
58809;DHT22;44579;51.672;7.834;2023-04-25T14:39:30;11.90;60.80
58809;DHT22;44579;51.672;7.834;2023-04-25T14:41:57;11.80;61.00
58809;DHT22;44579;51.672;7.834;2023-04-25T14:44:24;11.80;61.50
58809;DHT22;44579;51.672;7.834;2023-04-25T14:46:51;11.80;61.60
58809;DHT22;44579;51.672;7.834;2023-04-25T14:49:18;11.70;61.40
58809;DHT22;44579;51.672;7.834;2023-04-25T14:51:45;11.50;61.00
58809;DHT22;44579;51.672;7.834;2023-04-25T14:54:12;11.20;61.30
58809;DHT22;44579;51.672;7.834;2023-04-25T14:56:47;10.50;66.50
58809;DHT22;44579;51.672;7.834;2023-04-25T14:59:14;9.90;70.10
58809;DHT22;44579;51.672;7.834;2023-04-25T15:01:41;9.30;73.00
58809;DHT22;44579;51.672;7.834;2023-04-25T15:04:07;8.90;74.90
58809;DHT22;44579;51.672;7.834;2023-04-25T15:06:35;8.60;76.20
58809;DHT22;44579;51.672;7.834;2023-04-25T15:09:02;8.50;76.60
58809;DHT22;44579;51.672;7.834;2023-04-25T15:11:29;8.50;76.10
58809;DHT22;44579;51.672;7.834;2023-04-25T15:13:56;8.70;75.10
58809;DHT22;44579;51.672;7.834;2023-04-25T15:16:23;8.80;73.80
58809;DHT22;44579;51.672;7.834;2023-04-25T15:18:50;9.00;72.70
58809;DHT22;44579;51.672;7.834;2023-04-25T15:21:17;9.10;71.90
58809;DHT22;44579;51.672;7.834;2023-04-25T15:23:43;9.20;71.20
58809;DHT22;44579;51.672;7.834;2023-04-25T15:26:11;9.40;70.60
58809;DHT22;44579;51.672;7.834;2023-04-25T15:28:38;9.50;70.00
58809;DHT22;44579;51.672;7.834;2023-04-25T15:31:05;9.70;69.50
58809;DHT22;44579;51.672;7.834;2023-04-25T15:33:32;9.90;69.10
58809;DHT22;44579;51.672;7.834;2023-04-25T15:35:58;10.10;68.60
58809;DHT22;44579;51.672;7.834;2023-04-25T15:38:26;10.10;68.20
58809;DHT22;44579;51.672;7.834;2023-04-25T15:40:52;10.20;67.90
58809;DHT22;44579;51.672;7.834;2023-04-25T15:43:19;10.30;67.80
58809;DHT22;44579;51.672;7.834;2023-04-25T15:45:47;10.30;67.60
58809;DHT22;44579;51.672;7.834;2023-04-25T15:48:14;10.30;67.60
58809;DHT22;44579;51.672;7.834;2023-04-25T15:50:41;10.30;67.50
58809;DHT22;44579;51.672;7.834;2023-04-25T15:53:09;10.30;67.60
58809;DHT22;44579;51.672;7.834;2023-04-25T15:55:36;10.30;67.60
58809;DHT22;44579;51.672;7.834;2023-04-25T15:58:02;10.30;67.50
58809;DHT22;44579;51.672;7.834;2023-04-25T16:00:32;10.40;67.30
58809;DHT22;44579;51.672;7.834;2023-04-25T16:03:01;10.40;67.30
58809;DHT22;44579;51.672;7.834;2023-04-25T16:05:29;10.40;67.10
58809;DHT22;44579;51.672;7.834;2023-04-25T16:07:56;10.40;67.00
58809;DHT22;44579;51.672;7.834;2023-04-25T16:10:22;10.50;66.90